Terminal Aerodrome Forecast
Issued by NWS Northern Indiana

Home | Current Version | Previous Version | Graphics & Text | Print | Product List | Glossary On
Versions: 1 2 3 4 5 6 7 8 9 10 11 12 13 14 15 16 17
000
FTUS43 KIWX 301055 AAC
TAFFWA
TAF AMD
KFWA 301055Z 3011/3106 VRB03KT 6SM BR BKN070
      TEMPO 3011/3013 3SM BR FEW005
     FM301400 22007KT P6SM BKN040
     FM310100 22004KT P6SM SCT040=

USA.gov is the U.S. government's official web portal to all federal, state and local government web resources and services.